sensor_id;sensor_type;location;lat;lon;timestamp;pressure;altitude;pressure_sealevel;temperature;humidity
78845;BME280;68195;50.854;2.860;2023-03-05T00:01:06;102321.25;;;4.41;86.90
78845;BME280;68195;50.854;2.860;2023-03-05T00:03:32;102335.03;;;4.45;86.58
78845;BME280;68195;50.854;2.860;2023-03-05T00:06:00;102324.69;;;4.37;86.75
78845;BME280;68195;50.854;2.860;2023-03-05T00:08:26;102335.03;;;4.40;86.44
78845;BME280;68195;50.854;2.860;2023-03-05T00:10:59;102319.50;;;4.31;86.04
78845;BME280;68195;50.854;2.860;2023-03-05T00:13:25;102324.69;;;4.28;86.05
78845;BME280;68195;50.854;2.860;2023-03-05T00:15:53;102330.69;;;4.31;85.77
78845;BME280;68195;50.854;2.860;2023-03-05T00:18:22;102341.09;;;4.41;86.18
78845;BME280;68195;50.854;2.860;2023-03-05T00:20:50;102334.19;;;4.43;86.74
78845;BME280;68195;50.854;2.860;2023-03-05T00:23:18;102333.31;;;4.41;86.02
78845;BME280;68195;50.854;2.860;2023-03-05T00:25:44;102317.78;;;4.27;86.40
78845;BME280;68195;50.854;2.860;2023-03-05T00:28:14;102339.34;;;4.38;86.69
78845;BME280;68195;50.854;2.860;2023-03-05T00:30:40;102330.72;;;4.38;87.01
78845;BME280;68195;50.854;2.860;2023-03-05T00:33:08;102331.59;;;4.35;87.07
78845;BME280;68195;50.854;2.860;2023-03-05T00:35:42;102322.94;;;4.33;87.40
78845;BME280;68195;50.854;2.860;2023-03-05T00:38:09;102301.41;;;4.32;86.23
78845;BME280;68195;50.854;2.860;2023-03-05T00:40:36;102328.16;;;4.44;87.22
78845;BME280;68195;50.854;2.860;2023-03-05T00:43:02;102310.00;;;4.36;87.30
78845;BME280;68195;50.854;2.860;2023-03-05T00:45:28;102322.09;;;4.40;87.27
78845;BME280;68195;50.854;2.860;2023-03-05T00:47:56;102323.81;;;4.38;86.87
78845;BME280;68195;50.854;2.860;2023-03-05T00:50:27;102307.44;;;4.36;87.37
78845;BME280;68195;50.854;2.860;2023-03-05T00:52:52;102301.38;;;4.34;86.83
78845;BME280;68195;50.854;2.860;2023-03-05T00:55:18;102298.81;;;4.34;87.08
78845;BME280;68195;50.854;2.860;2023-03-05T00:57:44;102260.84;;;4.15;86.39
78845;BME280;68195;50.854;2.860;2023-03-05T01:00:11;102300.53;;;4.40;86.60
78845;BME280;68195;50.854;2.860;2023-03-05T01:02:38;102299.69;;;4.39;86.43
78845;BME280;68195;50.854;2.860;2023-03-05T01:05:04;102294.53;;;4.41;87.10
78845;BME280;68195;50.854;2.860;2023-03-05T01:07:32;102257.41;;;4.25;86.56
78845;BME280;68195;50.854;2.860;2023-03-05T01:09:58;102282.44;;;4.32;87.51
78845;BME280;68195;50.854;2.860;2023-03-05T01:12:24;102285.03;;;4.41;86.27
78845;BME280;68195;50.854;2.860;2023-03-05T01:14:49;102271.22;;;4.31;87.70
78845;BME280;68195;50.854;2.860;2023-03-05T01:17:15;102277.25;;;4.38;86.86
78845;BME280;68195;50.854;2.860;2023-03-05T01:19:40;102261.75;;;4.32;86.60
78845;BME280;68195;50.854;2.860;2023-03-05T01:22:05;102265.19;;;4.40;86.83
78845;BME280;68195;50.854;2.860;2023-03-05T01:24:33;102266.94;;;4.41;86.97
78845;BME280;68195;50.854;2.860;2023-03-05T01:27:01;102261.75;;;4.34;86.79
78845;BME280;68195;50.854;2.860;2023-03-05T01:29:26;102251.41;;;4.32;87.16
78845;BME280;68195;50.854;2.860;2023-03-05T01:31:54;102240.19;;;4.33;86.63
78845;BME280;68195;50.854;2.860;2023-03-05T01:34:20;102238.47;;;4.35;86.54
78845;BME280;68195;50.854;2.860;2023-03-05T01:36:48;102229.00;;;4.26;87.22
78845;BME280;68195;50.854;2.860;2023-03-05T01:39:18;102248.81;;;4.44;86.19
78845;BME280;68195;50.854;2.860;2023-03-05T01:41:46;102243.66;;;4.41;86.61
78845;BME280;68195;50.854;2.860;2023-03-05T01:44:24;102247.97;;;4.41;86.76
78845;BME280;68195;50.854;2.860;2023-03-05T01:46:54;102241.06;;;4.41;86.37
78845;BME280;68195;50.854;2.860;2023-03-05T01:49:25;102243.66;;;4.41;86.30
78845;BME280;68195;50.854;2.860;2023-03-05T01:52:11;102240.19;;;4.36;87.25
78845;BME280;68195;50.854;2.860;2023-03-05T01:54:53;102228.13;;;4.29;86.75
78845;BME280;68195;50.854;2.860;2023-03-05T01:57:27;102241.91;;;4.37;87.03
78845;BME280;68195;50.854;2.860;2023-03-05T01:59:58;102223.81;;;4.36;86.63
78845;BME280;68195;50.854;2.860;2023-03-05T02:02:24;102228.09;;;4.38;86.76
78845;BME280;68195;50.854;2.860;2023-03-05T02:04:58;102222.94;;;4.40;86.81
78845;BME280;68195;50.854;2.860;2023-03-05T02:07:28;102222.94;;;4.38;86.85
78845;BME280;68195;50.854;2.860;2023-03-05T02:09:54;102219.50;;;4.33;87.04
78845;BME280;68195;50.854;2.860;2023-03-05T02:12:22;102214.34;;;4.30;87.15
78845;BME280;68195;50.854;2.860;2023-03-05T02:14:50;102197.97;;;4.16;87.40
78845;BME280;68195;50.854;2.860;2023-03-05T02:17:25;102207.44;;;4.29;86.73
78845;BME280;68195;50.854;2.860;2023-03-05T02:19:57;102210.03;;;4.30;87.30
78845;BME280;68195;50.854;2.860;2023-03-05T02:22:26;102197.97;;;4.23;86.88
78845;BME280;68195;50.854;2.860;2023-03-05T02:24:54;102197.09;;;4.29;86.77
78845;BME280;68195;50.854;2.860;2023-03-05T02:27:27;102199.69;;;4.35;86.34
78845;BME280;68195;50.854;2.860;2023-03-05T02:29:59;102198.81;;;4.30;86.35
78845;BME280;68195;50.854;2.860;2023-03-05T02:32:25;102197.09;;;4.32;86.71
78845;BME280;68195;50.854;2.860;2023-03-05T02:34:53;102169.53;;;4.17;86.61
78845;BME280;68195;50.854;2.860;2023-03-05T02:37:21;102188.47;;;4.25;86.72
78845;BME280;68195;50.854;2.860;2023-03-05T02:39:48;102193.66;;;4.28;86.76
78845;BME280;68195;50.854;2.860;2023-03-05T02:42:17;102167.78;;;4.18;86.79
78845;BME280;68195;50.854;2.860;2023-03-05T02:44:42;102185.88;;;4.28;86.54
78845;BME280;68195;50.854;2.860;2023-03-05T02:47:07;102162.59;;;4.21;86.46
78845;BME280;68195;50.854;2.860;2023-03-05T02:49:33;102169.53;;;4.22;86.76
78845;BME280;68195;50.854;2.860;2023-03-05T02:51:58;102157.44;;;4.18;87.36
78845;BME280;68195;50.854;2.860;2023-03-05T02:54:24;102172.09;;;4.26;86.63
78845;BME280;68195;50.854;2.860;2023-03-05T02:56:52;102173.81;;;4.27;86.85
78845;BME280;68195;50.854;2.860;2023-03-05T02:59:22;102155.72;;;4.18;87.10
78845;BME280;68195;50.854;2.860;2023-03-05T03:01:47;102159.16;;;4.26;86.45
78845;BME280;68195;50.854;2.860;2023-03-05T03:04:12;102164.34;;;4.28;87.04
78845;BME280;68195;50.854;2.860;2023-03-05T03:06:43;102166.94;;;4.28;86.74
78845;BME280;68195;50.854;2.860;2023-03-05T03:09:08;102148.81;;;4.19;86.96
78845;BME280;68195;50.854;2.860;2023-03-05T03:11:36;102141.91;;;4.21;86.93
78845;BME280;68195;50.854;2.860;2023-03-05T03:14:04;102158.28;;;4.27;86.84
78845;BME280;68195;50.854;2.860;2023-03-05T03:16:32;102145.38;;;4.29;86.70
78845;BME280;68195;50.854;2.860;2023-03-05T03:18:57;102135.03;;;4.23;87.01
78845;BME280;68195;50.854;2.860;2023-03-05T03:21:25;102143.66;;;4.31;86.49
78845;BME280;68195;50.854;2.860;2023-03-05T03:23:53;102122.97;;;4.25;87.26
78845;BME280;68195;50.854;2.860;2023-03-05T03:26:18;102129.88;;;4.26;86.83
78845;BME280;68195;50.854;2.860;2023-03-05T03:28:44;102114.34;;;4.17;86.83
78845;BME280;68195;50.854;2.860;2023-03-05T03:31:12;102104.88;;;4.14;87.29
78845;BME280;68195;50.854;2.860;2023-03-05T03:33:37;102112.63;;;4.19;86.82
78845;BME280;68195;50.854;2.860;2023-03-05T03:36:03;102105.75;;;4.19;86.72
78845;BME280;68195;50.854;2.860;2023-03-05T03:38:29;102093.69;;;4.14;86.82
78845;BME280;68195;50.854;2.860;2023-03-05T03:40:54;102100.56;;;4.21;86.71
78845;BME280;68195;50.854;2.860;2023-03-05T03:43:22;102081.63;;;4.09;86.68
78845;BME280;68195;50.854;2.860;2023-03-05T03:45:47;102092.78;;;4.15;86.86
78845;BME280;68195;50.854;2.860;2023-03-05T03:48:13;102096.25;;;4.18;86.97
78845;BME280;68195;50.854;2.860;2023-03-05T03:50:43;102088.53;;;4.10;87.11
78845;BME280;68195;50.854;2.860;2023-03-05T03:53:09;102086.78;;;4.13;86.21
78845;BME280;68195;50.854;2.860;2023-03-05T03:55:39;102082.47;;;4.07;86.84
78845;BME280;68195;50.854;2.860;2023-03-05T03:58:05;102095.41;;;4.18;86.83
78845;BME280;68195;50.854;2.860;2023-03-05T04:00:36;102073.00;;;4.07;86.94
78845;BME280;68195;50.854;2.860;2023-03-05T04:03:05;102060.97;;;4.00;86.88
78845;BME280;68195;50.854;2.860;2023-03-05T04:05:31;102071.28;;;4.09;87.17
78845;BME280;68195;50.854;2.860;2023-03-05T04:07:56;102060.94;;;4.06;86.92
78845;BME280;68195;50.854;2.860;2023-03-05T04:10:23;102069.53;;;4.16;86.10
78845;BME280;68195;50.854;2.860;2023-03-05T04:12:51;102060.06;;;4.07;86.79
78845;BME280;68195;50.854;2.860;2023-03-05T04:15:16;102060.94;;;4.06;86.66
78845;BME280;68195;50.854;2.860;2023-03-05T04:17:44;102063.50;;;4.14;86.57
78845;BME280;68195;50.854;2.860;2023-03-05T04:20:12;102066.13;;;4.00;87.38
78845;BME280;68195;50.854;2.860;2023-03-05T04:22:42;102033.41;;;3.87;86.62
78845;BME280;68195;50.854;2.860;2023-03-05T04:25:07;102048.91;;;3.88;86.26
78845;BME280;68195;50.854;2.860;2023-03-05T04:27:34;102059.25;;;3.93;86.53
78845;BME280;68195;50.854;2.860;2023-03-05T04:30:00;102049.75;;;3.86;86.81
78845;BME280;68195;50.854;2.860;2023-03-05T04:32:28;102038.56;;;3.73;86.00
78845;BME280;68195;50.854;2.860;2023-03-05T04:34:59;102054.97;;;3.78;86.42
78845;BME280;68195;50.854;2.860;2023-03-05T04:37:25;102063.56;;;3.83;86.15
78845;BME280;68195;50.854;2.860;2023-03-05T04:39:55;102040.31;;;3.69;86.10
78845;BME280;68195;50.854;2.860;2023-03-05T04:42:23;102036.88;;;3.67;86.08
78845;BME280;68195;50.854;2.860;2023-03-05T04:44:49;102056.66;;;3.78;86.24
78845;BME280;68195;50.854;2.860;2023-03-05T04:47:18;102046.31;;;3.73;86.20
78845;BME280;68195;50.854;2.860;2023-03-05T04:49:45;102051.50;;;3.75;86.36
78845;BME280;68195;50.854;2.860;2023-03-05T04:52:14;102041.16;;;3.73;86.54
78845;BME280;68195;50.854;2.860;2023-03-05T04:54:39;102041.16;;;3.78;86.35
78845;BME280;68195;50.854;2.860;2023-03-05T04:57:07;102048.91;;;3.81;86.40
78845;BME280;68195;50.854;2.860;2023-03-05T04:59:33;102033.41;;;3.73;86.83
78845;BME280;68195;50.854;2.860;2023-03-05T05:01:58;102043.72;;;3.78;86.87
78845;BME280;68195;50.854;2.860;2023-03-05T05:04:23;102029.09;;;3.77;86.75
78845;BME280;68195;50.854;2.860;2023-03-05T05:06:49;102035.13;;;3.82;87.13
78845;BME280;68195;50.854;2.860;2023-03-05T05:09:14;102023.94;;;3.74;87.67
78845;BME280;68195;50.854;2.860;2023-03-05T05:11:42;102022.19;;;3.76;86.96
78845;BME280;68195;50.854;2.860;2023-03-05T05:14:12;102011.88;;;3.73;86.16
78845;BME280;68195;50.854;2.860;2023-03-05T05:16:38;102025.66;;;3.82;86.56
78845;BME280;68195;50.854;2.860;2023-03-05T05:19:03;102029.09;;;3.87;87.11
78845;BME280;68195;50.854;2.860;2023-03-05T05:21:33;102031.69;;;3.89;87.29
78845;BME280;68195;50.854;2.860;2023-03-05T05:23:59;102012.75;;;3.82;86.17
78845;BME280;68195;50.854;2.860;2023-03-05T05:26:26;102022.19;;;3.93;86.56
78845;BME280;68195;50.854;2.860;2023-03-05T05:28:54;102016.19;;;3.89;86.35
78845;BME280;68195;50.854;2.860;2023-03-05T05:31:19;102020.47;;;3.96;86.70
78845;BME280;68195;50.854;2.860;2023-03-05T05:33:45;102019.59;;;3.94;87.28
78845;BME280;68195;50.854;2.860;2023-03-05T05:36:13;102007.56;;;3.90;86.42
78845;BME280;68195;50.854;2.860;2023-03-05T05:38:45;102016.16;;;3.95;86.71
78845;BME280;68195;50.854;2.860;2023-03-05T05:41:13;102013.59;;;3.94;86.84
78845;BME280;68195;50.854;2.860;2023-03-05T05:43:39;102008.38;;;3.95;86.65
78845;BME280;68195;50.854;2.860;2023-03-05T05:46:09;102013.56;;;3.95;87.20
78845;BME280;68195;50.854;2.860;2023-03-05T05:48:37;101977.44;;;3.75;86.95
78845;BME280;68195;50.854;2.860;2023-03-05T05:51:10;102004.97;;;3.92;86.78
78845;BME280;68195;50.854;2.860;2023-03-05T05:53:36;102007.56;;;3.93;87.21
78845;BME280;68195;50.854;2.860;2023-03-05T05:56:07;102010.13;;;3.98;87.28
78845;BME280;68195;50.854;2.860;2023-03-05T05:58:36;101994.66;;;3.87;87.07
78845;BME280;68195;50.854;2.860;2023-03-05T06:03:47;102006.72;;;3.85;86.73
78845;BME280;68195;50.854;2.860;2023-03-05T06:06:14;102003.25;;;3.86;87.36
78845;BME280;68195;50.854;2.860;2023-03-05T06:08:40;102011.88;;;3.82;87.26
78845;BME280;68195;50.854;2.860;2023-03-05T06:11:08;102007.59;;;3.72;87.62
78845;BME280;68195;50.854;2.860;2023-03-05T06:13:37;102020.50;;;3.81;87.75
78845;BME280;68195;50.854;2.860;2023-03-05T06:16:06;102012.75;;;3.81;87.49
78845;BME280;68195;50.854;2.860;2023-03-05T06:18:33;102012.75;;;3.75;88.12
78845;BME280;68195;50.854;2.860;2023-03-05T06:21:08;102010.16;;;3.68;88.32
78845;BME280;68195;50.854;2.860;2023-03-05T06:23:35;102000.72;;;3.67;87.59
78845;BME280;68195;50.854;2.860;2023-03-05T06:26:04;101998.09;;;3.77;86.82
78845;BME280;68195;50.854;2.860;2023-03-05T06:28:33;101990.34;;;3.70;86.97
78845;BME280;68195;50.854;2.860;2023-03-05T06:33:28;102002.41;;;3.85;87.22
78845;BME280;68195;50.854;2.860;2023-03-05T06:35:54;101996.34;;;3.89;86.86
78845;BME280;68195;50.854;2.860;2023-03-05T06:38:22;101993.78;;;3.88;87.00
78845;BME280;68195;50.854;2.860;2023-03-05T06:40:47;101985.16;;;3.80;87.58
78845;BME280;68195;50.854;2.860;2023-03-05T06:43:17;101965.41;;;3.69;87.26
78845;BME280;68195;50.854;2.860;2023-03-05T06:45:45;101970.56;;;3.74;87.10
78845;BME280;68195;50.854;2.860;2023-03-05T06:48:16;101984.28;;;3.90;87.01
78845;BME280;68195;50.854;2.860;2023-03-05T06:50:43;101992.06;;;3.93;86.88
78845;BME280;68195;50.854;2.860;2023-03-05T06:53:09;101987.75;;;3.94;87.04
78845;BME280;68195;50.854;2.860;2023-03-05T06:55:35;101970.53;;;3.82;86.71
78845;BME280;68195;50.854;2.860;2023-03-05T06:58:06;101947.31;;;3.68;86.86
78845;BME280;68195;50.854;2.860;2023-03-05T07:00:32;101980.88;;;3.91;86.53
78845;BME280;68195;50.854;2.860;2023-03-05T07:03:00;101967.94;;;3.85;87.55
78845;BME280;68195;50.854;2.860;2023-03-05T07:05:27;101967.09;;;3.81;87.06
78845;BME280;68195;50.854;2.860;2023-03-05T07:07:53;101983.41;;;3.94;86.86
78845;BME280;68195;50.854;2.860;2023-03-05T07:10:18;101975.69;;;3.88;87.54
78845;BME280;68195;50.854;2.860;2023-03-05T07:12:43;101986.84;;;4.02;87.03
78845;BME280;68195;50.854;2.860;2023-03-05T07:15:09;101964.47;;;3.90;86.78
78845;BME280;68195;50.854;2.860;2023-03-05T07:17:35;101983.41;;;3.97;87.72
78845;BME280;68195;50.854;2.860;2023-03-05T07:20:00;101946.47;;;3.67;87.68
78845;BME280;68195;50.854;2.860;2023-03-05T07:22:25;101985.16;;;3.80;88.22
78845;BME280;68195;50.854;2.860;2023-03-05T07:24:51;101974.84;;;3.80;88.53
78845;BME280;68195;50.854;2.860;2023-03-05T07:27:16;101970.53;;;3.76;87.70
78845;BME280;68195;50.854;2.860;2023-03-05T07:29:41;101978.28;;;3.79;88.51
78845;BME280;68195;50.854;2.860;2023-03-05T07:32:07;101967.97;;;3.73;88.35
78845;BME280;68195;50.854;2.860;2023-03-05T07:34:32;101941.28;;;3.64;88.28
78845;BME280;68195;50.854;2.860;2023-03-05T07:36:57;101967.94;;;3.91;87.71
78845;BME280;68195;50.854;2.860;2023-03-05T07:39:25;101975.69;;;3.96;87.47
78845;BME280;68195;50.854;2.860;2023-03-05T07:41:51;101957.56;;;3.93;87.08
78845;BME280;68195;50.854;2.860;2023-03-05T07:44:18;101937.78;;;3.85;87.08
78845;BME280;68195;50.854;2.860;2023-03-05T07:46:44;101959.28;;;4.01;87.66
78845;BME280;68195;50.854;2.860;2023-03-05T07:49:10;101972.19;;;4.07;87.29
78845;BME280;68195;50.854;2.860;2023-03-05T07:51:35;101935.19;;;3.90;88.00
78845;BME280;68195;50.854;2.860;2023-03-05T07:54:01;101962.72;;;4.13;87.74
78845;BME280;68195;50.854;2.860;2023-03-05T07:56:32;101965.31;;;4.06;87.69
78845;BME280;68195;50.854;2.860;2023-03-05T07:59:01;101915.41;;;3.74;87.79
78845;BME280;68195;50.854;2.860;2023-03-05T08:01:28;101954.09;;;4.01;86.26
78845;BME280;68195;50.854;2.860;2023-03-05T08:03:54;101925.72;;;3.94;86.70
78845;BME280;68195;50.854;2.860;2023-03-05T08:06:22;101945.44;;;4.15;86.34
78845;BME280;68195;50.854;2.860;2023-03-05T08:08:52;101924.78;;;4.07;86.00
78845;BME280;68195;50.854;2.860;2023-03-05T08:11:22;101920.50;;;4.04;85.85
78845;BME280;68195;50.854;2.860;2023-03-05T08:13:50;101936.84;;;4.17;86.68
78845;BME280;68195;50.854;2.860;2023-03-05T08:16:20;101910.16;;;4.09;86.66
78845;BME280;68195;50.854;2.860;2023-03-05T08:18:48;101935.91;;;4.30;86.86
78845;BME280;68195;50.854;2.860;2023-03-05T08:21:22;101923.88;;;4.23;86.27
78845;BME280;68195;50.854;2.860;2023-03-05T08:23:51;101929.81;;;4.36;86.51
78845;BME280;68195;50.854;2.860;2023-03-05T08:26:19;101931.56;;;4.34;86.50
78845;BME280;68195;50.854;2.860;2023-03-05T08:28:45;101930.69;;;4.40;86.16
78845;BME280;68195;50.854;2.860;2023-03-05T08:31:14;101915.22;;;4.30;86.28
78845;BME280;68195;50.854;2.860;2023-03-05T08:33:40;101923.78;;;4.36;86.41
78845;BME280;68195;50.854;2.860;2023-03-05T08:36:07;101928.06;;;4.47;86.17
78845;BME280;68195;50.854;2.860;2023-03-05T08:38:33;101897.97;;;4.31;86.60
78845;BME280;68195;50.854;2.860;2023-03-05T08:41:01;101911.72;;;4.36;86.83
78845;BME280;68195;50.854;2.860;2023-03-05T08:43:26;101929.78;;;4.50;86.42
78845;BME280;68195;50.854;2.860;2023-03-05T08:45:54;101920.34;;;4.41;86.15
78845;BME280;68195;50.854;2.860;2023-03-05T08:48:20;101910.88;;;4.39;87.45
78845;BME280;68195;50.854;2.860;2023-03-05T08:50:45;101933.19;;;4.55;86.71
78845;BME280;68195;50.854;2.860;2023-03-05T08:53:13;101901.38;;;4.39;85.53
78845;BME280;68195;50.854;2.860;2023-03-05T08:55:41;101891.88;;;4.38;84.62
78845;BME280;68195;50.854;2.860;2023-03-05T08:58:09;101903.03;;;4.45;85.40
78845;BME280;68195;50.854;2.860;2023-03-05T09:00:38;101886.78;;;4.32;85.83
78845;BME280;68195;50.854;2.860;2023-03-05T09:03:04;101912.50;;;4.54;85.32
78845;BME280;68195;50.854;2.860;2023-03-05T09:05:32;101890.16;;;4.43;85.25
78845;BME280;68195;50.854;2.860;2023-03-05T09:08:00;101903.00;;;4.51;85.76
78845;BME280;68195;50.854;2.860;2023-03-05T09:10:27;101907.31;;;4.57;84.95
78845;BME280;68195;50.854;2.860;2023-03-05T09:12:58;101894.41;;;4.49;85.38
78845;BME280;68195;50.854;2.860;2023-03-05T09:15:23;101860.03;;;4.33;85.02
78845;BME280;68195;50.854;2.860;2023-03-05T09:17:49;101901.22;;;4.65;84.79
78845;BME280;68195;50.854;2.860;2023-03-05T09:20:17;101902.06;;;4.66;85.07
78845;BME280;68195;50.854;2.860;2023-03-05T09:22:42;101903.78;;;4.67;85.27
78845;BME280;68195;50.854;2.860;2023-03-05T09:25:12;101878.88;;;4.50;85.30
78845;BME280;68195;50.854;2.860;2023-03-05T09:27:45;101890.81;;;4.68;85.36
78845;BME280;68195;50.854;2.860;2023-03-05T09:30:11;101891.69;;;4.72;85.16
78845;BME280;68195;50.854;2.860;2023-03-05T09:32:39;101891.72;;;4.69;85.41
78845;BME280;68195;50.854;2.860;2023-03-05T09:35:05;101892.53;;;4.74;85.24
78845;BME280;68195;50.854;2.860;2023-03-05T09:37:32;101887.34;;;4.74;85.17
78845;BME280;68195;50.854;2.860;2023-03-05T09:40:00;101885.59;;;4.76;84.99
78845;BME280;68195;50.854;2.860;2023-03-05T09:45:36;101889.06;;;4.75;85.67
78845;BME280;68195;50.854;2.860;2023-03-05T09:48:18;101877.00;;;4.74;85.65
78845;BME280;68195;50.854;2.860;2023-03-05T09:50:59;101842.72;;;4.46;85.96
78845;BME280;68195;50.854;2.860;2023-03-05T09:56:35;101886.50;;;4.72;84.98
78845;BME280;68195;50.854;2.860;2023-03-05T09:59:16;101865.88;;;4.63;84.30
78845;BME280;68195;50.854;2.860;2023-03-05T10:01:44;101846.09;;;4.51;84.46
78845;BME280;68195;50.854;2.860;2023-03-05T10:07:03;101867.63;;;4.61;85.31
78845;BME280;68195;50.854;2.860;2023-03-05T10:14:39;101849.50;;;4.62;85.60
78845;BME280;68195;50.854;2.860;2023-03-05T10:17:38;101870.94;;;4.75;85.69
78845;BME280;68195;50.854;2.860;2023-03-05T10:23:03;101878.66;;;4.84;84.88
78845;BME280;68195;50.854;2.860;2023-03-05T10:26:04;101849.47;;;4.67;85.29
78845;BME280;68195;50.854;2.860;2023-03-05T10:28:47;101870.00;;;4.87;85.30
78845;BME280;68195;50.854;2.860;2023-03-05T10:31:51;101867.38;;;4.90;85.22
78845;BME280;68195;50.854;2.860;2023-03-05T10:40:11;101864.75;;;4.94;85.09
78845;BME280;68195;50.854;2.860;2023-03-05T10:45:17;101851.78;;;4.98;85.33
78845;BME280;68195;50.854;2.860;2023-03-05T10:52:47;101838.84;;;4.98;84.71
78845;BME280;68195;50.854;2.860;2023-03-05T10:55:20;101847.41;;;5.06;85.34
78845;BME280;68195;50.854;2.860;2023-03-05T10:57:48;101845.63;;;5.09;85.01
78845;BME280;68195;50.854;2.860;2023-03-05T11:00:21;101835.28;;;5.09;85.18
78845;BME280;68195;50.854;2.860;2023-03-05T11:02:59;101839.59;;;5.12;84.80
78845;BME280;68195;50.854;2.860;2023-03-05T11:05:57;101833.53;;;5.13;84.69
78845;BME280;68195;50.854;2.860;2023-03-05T11:08:27;101829.19;;;5.15;85.01
78845;BME280;68195;50.854;2.860;2023-03-05T11:11:15;101823.13;;;5.16;84.45
78845;BME280;68195;50.854;2.860;2023-03-05T11:13:58;101820.53;;;5.16;85.23
78845;BME280;68195;50.854;2.860;2023-03-05T11:16:30;101816.19;;;5.18;84.47
78845;BME280;68195;50.854;2.860;2023-03-05T11:21:40;101795.47;;;5.18;84.30
78845;BME280;68195;50.854;2.860;2023-03-05T11:24:17;101804.97;;;5.19;83.54
78845;BME280;68195;50.854;2.860;2023-03-05T11:29:17;101807.56;;;5.21;83.19
78845;BME280;68195;50.854;2.860;2023-03-05T11:31:48;101780.09;;;5.06;83.90
78845;BME280;68195;50.854;2.860;2023-03-05T11:39:16;101756.88;;;4.97;83.39
78845;BME280;68195;50.854;2.860;2023-03-05T11:44:31;101785.09;;;5.23;83.62
78845;BME280;68195;50.854;2.860;2023-03-05T11:49:40;101766.22;;;5.11;83.48
78845;BME280;68195;50.854;2.860;2023-03-05T11:52:13;101780.75;;;5.25;83.45
78845;BME280;68195;50.854;2.860;2023-03-05T11:54:53;101785.94;;;5.25;81.87
78845;BME280;68195;50.854;2.860;2023-03-05T12:01:49;101770.19;;;5.42;80.67
78845;BME280;68195;50.854;2.860;2023-03-05T12:04:16;101753.91;;;5.30;79.84
78845;BME280;68195;50.854;2.860;2023-03-05T12:09:30;101761.78;;;5.23;78.26
78845;BME280;68195;50.854;2.860;2023-03-05T12:12:24;101746.13;;;5.32;79.17
78845;BME280;68195;50.854;2.860;2023-03-05T12:15:18;101720.59;;;5.01;75.60
78845;BME280;68195;50.854;2.860;2023-03-05T12:18:05;101740.53;;;4.93;76.05
78845;BME280;68195;50.854;2.860;2023-03-05T12:23:18;101734.72;;;4.71;78.91
78845;BME280;68195;50.854;2.860;2023-03-05T12:25:54;101739.97;;;4.62;77.38
78845;BME280;68195;50.854;2.860;2023-03-05T12:31:46;101720.19;;;4.53;80.58
78845;BME280;68195;50.854;2.860;2023-03-05T12:33:46;101711.53;;;4.60;80.11
78845;BME280;68195;50.854;2.860;2023-03-05T12:38:49;101691.53;;;4.76;81.96
78845;BME280;68195;50.854;2.860;2023-03-05T12:49:40;101673.03;;;5.08;82.34
78845;BME280;68195;50.854;2.860;2023-03-05T12:52:22;101673.75;;;5.20;82.11
78845;BME280;68195;50.854;2.860;2023-03-05T12:54:59;101665.91;;;5.27;82.36
78845;BME280;68195;50.854;2.860;2023-03-05T12:57:28;101658.22;;;5.21;81.96
78845;BME280;68195;50.854;2.860;2023-03-05T13:00:00;101659.13;;;5.16;82.61
78845;BME280;68195;50.854;2.860;2023-03-05T13:02:39;101646.94;;;5.25;82.14
78845;BME280;68195;50.854;2.860;2023-03-05T13:05:18;101647.88;;;5.18;81.63
78845;BME280;68195;50.854;2.860;2023-03-05T13:07:45;101635.81;;;5.17;81.93
78845;BME280;68195;50.854;2.860;2023-03-05T13:10:27;101603.22;;;5.01;81.64
78845;BME280;68195;50.854;2.860;2023-03-05T13:12:54;101627.44;;;4.98;83.49
78845;BME280;68195;50.854;2.860;2023-03-05T13:15:24;101628.19;;;5.05;82.41
78845;BME280;68195;50.854;2.860;2023-03-05T13:17:58;101602.56;;;4.86;82.46
78845;BME280;68195;50.854;2.860;2023-03-05T13:20:36;101628.19;;;5.05;82.37
78845;BME280;68195;50.854;2.860;2023-03-05T13:23:24;101618.75;;;5.04;81.57
78845;BME280;68195;50.854;2.860;2023-03-05T13:26:07;101617.00;;;5.03;82.03
78845;BME280;68195;50.854;2.860;2023-03-05T13:28:34;101601.69;;;4.87;82.83
78845;BME280;68195;50.854;2.860;2023-03-05T13:31:12;101605.94;;;4.90;81.47
78845;BME280;68195;50.854;2.860;2023-03-05T13:33:38;101582.97;;;4.67;80.19
78845;BME280;68195;50.854;2.860;2023-03-05T13:36:04;101606.91;;;4.81;81.84
78845;BME280;68195;50.854;2.860;2023-03-05T13:38:37;101607.75;;;4.83;81.09
78845;BME280;68195;50.854;2.860;2023-03-05T13:41:17;101595.56;;;4.93;81.76
78845;BME280;68195;50.854;2.860;2023-03-05T13:43:55;101600.75;;;4.91;79.92
78845;BME280;68195;50.854;2.860;2023-03-05T13:49:25;101574.16;;;4.82;81.47
78845;BME280;68195;50.854;2.860;2023-03-05T13:51:53;101577.47;;;4.93;81.42
78845;BME280;68195;50.854;2.860;2023-03-05T13:54:20;101576.63;;;4.89;82.10
78845;BME280;68195;50.854;2.860;2023-03-05T13:56:48;101550.88;;;4.79;82.09
78845;BME280;68195;50.854;2.860;2023-03-05T13:59:19;101568.88;;;4.89;81.45
78845;BME280;68195;50.854;2.860;2023-03-05T14:01:48;101555.94;;;4.89;80.31
78845;BME280;68195;50.854;2.860;2023-03-05T14:04:20;101525.06;;;4.74;79.72
78845;BME280;68195;50.854;2.860;2023-03-05T14:07:06;101554.22;;;4.88;78.85
78845;BME280;68195;50.854;2.860;2023-03-05T14:14:51;101538.78;;;4.81;79.45
78845;BME280;68195;50.854;2.860;2023-03-05T14:22:53;101533.47;;;4.91;79.57
78845;BME280;68195;50.854;2.860;2023-03-05T14:25:37;101541.91;;;5.04;78.66
78845;BME280;68195;50.854;2.860;2023-03-05T14:28:26;101534.09;;;5.09;80.35
78845;BME280;68195;50.854;2.860;2023-03-05T14:30:56;101504.06;;;4.97;78.97
78845;BME280;68195;50.854;2.860;2023-03-05T14:33:31;101516.72;;;5.17;78.78
78845;BME280;68195;50.854;2.860;2023-03-05T14:36:00;101482.31;;;5.09;78.11
78845;BME280;68195;50.854;2.860;2023-03-05T14:38:29;101517.25;;;5.38;78.29
78845;BME280;68195;50.854;2.860;2023-03-05T14:41:30;101494.97;;;5.27;76.54